Hampton, Nebraska
Current Conditions -  °F | °C
As of 10:15 AM on Wednesday 26 Nov 2014 (Local Time) from KAUH Reporting Station
Overcast Overcast  
Wind Chill: 13°   Ceiling: 1700
Heat Index: 28°   Visibility: 10mi
Dew Point: 20°   Wind: 29mph
Humidity: 72%   Direction: 340°NNW
Pressure: 30.16"   Gusts: 37mph
Location:  40.88°N, 97.89°W
Report Text: KAUH 261615Z AUTO 34025G32KT 10SM OVC017 M02/M06 A3016 RMK AO2 T10211065
Loading
Personal Weather Stations






























Interactive Weather Map New forecast layout! Learn more

10-Day Weather Forecast

Advertisements
Track Severe Weather on mobile